sensor_id;sensor_type;location;lat;lon;timestamp;pressure;altitude;pressure_sealevel;temperature;humidity
6413;BME280;3239;48.714;9.472;2023-02-19T00:01:21;98939.34;;;10.45;100.00
6413;BME280;3239;48.714;9.472;2023-02-19T00:03:59;98947.31;;;10.49;100.00
6413;BME280;3239;48.714;9.472;2023-02-19T00:06:27;98941.56;;;10.52;100.00
6413;BME280;3239;48.714;9.472;2023-02-19T00:08:53;98943.06;;;10.53;100.00
6413;BME280;3239;48.714;9.472;2023-02-19T00:11:23;98934.09;;;10.53;100.00
6413;BME280;3239;48.714;9.472;2023-02-19T00:13:52;98923.91;;;10.53;100.00
6413;BME280;3239;48.714;9.472;2023-02-19T00:16:34;98925.09;;;10.58;100.00
6413;BME280;3239;48.714;9.472;2023-02-19T00:19:03;98929.59;;;10.55;100.00
6413;BME280;3239;48.714;9.472;2023-02-19T00:21:30;98911.94;;;10.51;100.00
6413;BME280;3239;48.714;9.472;2023-02-19T00:24:01;98925.88;;;10.58;100.00
6413;BME280;3239;48.714;9.472;2023-02-19T00:26:27;98917.44;;;10.45;100.00
6413;BME280;3239;48.714;9.472;2023-02-19T00:28:55;98911.69;;;10.49;100.00
6413;BME280;3239;48.714;9.472;2023-02-19T00:31:28;98912.44;;;10.49;100.00
6413;BME280;3239;48.714;9.472;2023-02-19T00:33:58;98911.41;;;10.58;100.00
6413;BME280;3239;48.714;9.472;2023-02-19T00:36:25;98901.44;;;10.55;100.00
6413;BME280;3239;48.714;9.472;2023-02-19T00:38:51;98910.41;;;10.55;100.00
6413;BME280;3239;48.714;9.472;2023-02-19T00:41:19;98892.00;;;10.56;100.00
6413;BME280;3239;48.714;9.472;2023-02-19T00:43:58;98886.50;;;10.56;100.00
6413;BME280;3239;48.714;9.472;2023-02-19T00:46:37;98890.75;;;10.57;100.00
6413;BME280;3239;48.714;9.472;2023-02-19T00:49:06;98885.97;;;10.63;100.00
6413;BME280;3239;48.714;9.472;2023-02-19T00:51:36;98889.72;;;10.60;100.00
6413;BME280;3239;48.714;9.472;2023-02-19T00:54:02;98895.19;;;10.60;100.00
6413;BME280;3239;48.714;9.472;2023-02-19T00:56:28;98893.72;;;10.59;100.00
6413;BME280;3239;48.714;9.472;2023-02-19T00:58:54;98891.44;;;10.63;100.00
6413;BME280;3239;48.714;9.472;2023-02-19T01:01:21;98884.22;;;10.65;100.00
6413;BME280;3239;48.714;9.472;2023-02-19T01:03:47;98880.00;;;10.64;100.00
6413;BME280;3239;48.714;9.472;2023-02-19T01:06:16;98874.78;;;10.61;100.00
6413;BME280;3239;48.714;9.472;2023-02-19T01:08:42;98875.00;;;10.63;100.00
6413;BME280;3239;48.714;9.472;2023-02-19T01:11:09;98877.47;;;10.66;100.00
6413;BME280;3239;48.714;9.472;2023-02-19T01:13:36;98865.75;;;10.66;100.00
6413;BME280;3239;48.714;9.472;2023-02-19T01:16:09;98859.28;;;10.69;100.00
6413;BME280;3239;48.714;9.472;2023-02-19T01:18:36;98839.88;;;10.67;100.00
6413;BME280;3239;48.714;9.472;2023-02-19T01:21:15;98837.34;;;10.69;100.00
6413;BME280;3239;48.714;9.472;2023-02-19T01:23:41;98837.81;;;10.73;100.00
6413;BME280;3239;48.714;9.472;2023-02-19T01:26:13;98827.09;;;10.75;100.00
6413;BME280;3239;48.714;9.472;2023-02-19T01:28:39;98811.63;;;10.77;100.00
6413;BME280;3239;48.714;9.472;2023-02-19T01:31:07;98815.63;;;10.76;100.00
6413;BME280;3239;48.714;9.472;2023-02-19T01:33:35;98807.41;;;10.76;100.00
6413;BME280;3239;48.714;9.472;2023-02-19T01:36:05;98803.69;;;10.74;100.00
6413;BME280;3239;48.714;9.472;2023-02-19T01:38:31;98814.38;;;10.77;100.00
6413;BME280;3239;48.714;9.472;2023-02-19T01:41:01;98807.41;;;10.76;100.00
6413;BME280;3239;48.714;9.472;2023-02-19T01:43:27;98795.69;;;10.76;100.00
6413;BME280;3239;48.714;9.472;2023-02-19T01:45:53;98780.50;;;10.75;100.00
6413;BME280;3239;48.714;9.472;2023-02-19T01:48:25;98793.19;;;10.78;100.00
6413;BME280;3239;48.714;9.472;2023-02-19T01:50:59;98777.25;;;10.76;100.00
6413;BME280;3239;48.714;9.472;2023-02-19T01:53:33;98774.72;;;10.78;100.00
6413;BME280;3239;48.714;9.472;2023-02-19T01:56:01;98774.97;;;10.80;100.00
6413;BME280;3239;48.714;9.472;2023-02-19T01:58:31;98775.50;;;10.79;100.00
6413;BME280;3239;48.714;9.472;2023-02-19T02:00:59;98767.03;;;10.77;100.00
6413;BME280;3239;48.714;9.472;2023-02-19T02:03:27;98773.50;;;10.79;100.00
6413;BME280;3239;48.714;9.472;2023-02-19T02:06:34;98777.72;;;10.80;100.00
6413;BME280;3239;48.714;9.472;2023-02-19T02:09:02;98765.78;;;10.78;100.00
6413;BME280;3239;48.714;9.472;2023-02-19T02:11:51;98767.03;;;10.77;100.00
6413;BME280;3239;48.714;9.472;2023-02-19T02:14:21;98766.28;;;10.76;100.00
6413;BME280;3239;48.714;9.472;2023-02-19T02:23:27;98769.03;;;10.76;100.00
6413;BME280;3239;48.714;9.472;2023-02-19T02:26:13;98764.31;;;10.77;100.00
6413;BME280;3239;48.714;9.472;2023-02-19T02:32:02;98769.03;;;10.76;100.00
6413;BME280;3239;48.714;9.472;2023-02-19T02:34:47;98767.56;;;10.75;100.00
6413;BME280;3239;48.714;9.472;2023-02-19T02:37:14;98760.59;;;10.74;100.00
6413;BME280;3239;48.714;9.472;2023-02-19T02:39:41;98775.31;;;10.71;100.00
6413;BME280;3239;48.714;9.472;2023-02-19T02:42:09;98772.34;;;10.69;100.00
6413;BME280;3239;48.714;9.472;2023-02-19T02:44:57;98779.03;;;10.68;100.00
6413;BME280;3239;48.714;9.472;2023-02-19T02:47:58;98789.03;;;10.66;100.00
6413;BME280;3239;48.714;9.472;2023-02-19T02:50:30;98809.38;;;10.41;100.00
6413;BME280;3239;48.714;9.472;2023-02-19T02:53:07;98821.59;;;10.40;100.00
6413;BME280;3239;48.714;9.472;2023-02-19T02:55:53;98821.84;;;10.42;100.00
6413;BME280;3239;48.714;9.472;2023-02-19T02:58:22;98831.53;;;10.43;100.00
6413;BME280;3239;48.714;9.472;2023-02-19T03:00:55;98840.53;;;10.38;100.00
6413;BME280;3239;48.714;9.472;2023-02-19T03:03:43;98827.09;;;10.40;100.00
6413;BME280;3239;48.714;9.472;2023-02-19T03:06:12;98831.81;;;10.39;100.00
6413;BME280;3239;48.714;9.472;2023-02-19T03:08:57;98826.56;;;10.41;100.00
6413;BME280;3239;48.714;9.472;2023-02-19T03:11:28;98831.03;;;10.39;100.00
6413;BME280;3239;48.714;9.472;2023-02-19T03:14:30;98827.31;;;10.36;100.00
6413;BME280;3239;48.714;9.472;2023-02-19T03:17:47;98822.06;;;10.44;100.00
6413;BME280;3239;48.714;9.472;2023-02-19T03:20:37;98812.59;;;10.45;100.00
6413;BME280;3239;48.714;9.472;2023-02-19T03:23:08;98809.84;;;10.45;100.00
6413;BME280;3239;48.714;9.472;2023-02-19T03:25:37;98803.63;;;10.44;100.00
6413;BME280;3239;48.714;9.472;2023-02-19T03:28:27;98798.88;;;10.45;100.00
6413;BME280;3239;48.714;9.472;2023-02-19T03:31:18;98809.69;;;10.32;100.00
6413;BME280;3239;48.714;9.472;2023-02-19T03:33:51;98804.69;;;10.36;100.00
6413;BME280;3239;48.714;9.472;2023-02-19T03:36:19;98814.16;;;10.35;100.00
6413;BME280;3239;48.714;9.472;2023-02-19T03:39:00;98817.91;;;10.26;100.00
6413;BME280;3239;48.714;9.472;2023-02-19T03:41:57;98819.97;;;10.15;100.00
6413;BME280;3239;48.714;9.472;2023-02-19T03:47:50;98841.66;;;10.02;100.00
6413;BME280;3239;48.714;9.472;2023-02-19T03:50:29;98863.31;;;10.00;100.00
6413;BME280;3239;48.714;9.472;2023-02-19T03:53:29;98865.56;;;9.96;100.00
6413;BME280;3239;48.714;9.472;2023-02-19T03:56:09;98885.25;;;9.89;100.00
6413;BME280;3239;48.714;9.472;2023-02-19T04:01:40;98906.91;;;9.76;100.00
6413;BME280;3239;48.714;9.472;2023-02-19T04:04:29;98929.34;;;9.63;100.00
6413;BME280;3239;48.714;9.472;2023-02-19T04:06:57;98946.00;;;9.65;100.00
6413;BME280;3239;48.714;9.472;2023-02-19T04:09:32;98956.44;;;9.67;100.00
6413;BME280;3239;48.714;9.472;2023-02-19T04:12:01;98964.88;;;9.69;100.00
6413;BME280;3239;48.714;9.472;2023-02-19T04:14:34;98972.34;;;9.63;100.00
6413;BME280;3239;48.714;9.472;2023-02-19T04:17:16;98985.81;;;9.61;100.00
6413;BME280;3239;48.714;9.472;2023-02-19T04:19:46;98998.72;;;9.55;100.00
6413;BME280;3239;48.714;9.472;2023-02-19T04:22:15;99000.44;;;9.52;100.00
6413;BME280;3239;48.714;9.472;2023-02-19T04:24:51;99000.97;;;9.51;100.00
6413;BME280;3239;48.714;9.472;2023-02-19T04:27:18;99016.63;;;9.50;100.00
6413;BME280;3239;48.714;9.472;2023-02-19T04:29:44;99020.09;;;9.45;100.00
6413;BME280;3239;48.714;9.472;2023-02-19T04:32:11;99027.56;;;9.50;100.00
6413;BME280;3239;48.714;9.472;2023-02-19T04:34:37;99029.53;;;9.44;100.00
6413;BME280;3239;48.714;9.472;2023-02-19T04:37:03;99025.31;;;9.49;100.00
6413;BME280;3239;48.714;9.472;2023-02-19T04:39:29;99021.34;;;9.55;100.00
6413;BME280;3239;48.714;9.472;2023-02-19T04:41:55;99016.84;;;9.52;100.00
6413;BME280;3239;48.714;9.472;2023-02-19T04:44:20;99017.63;;;9.53;100.00
6413;BME280;3239;48.714;9.472;2023-02-19T04:46:46;99028.31;;;9.51;100.00
6413;BME280;3239;48.714;9.472;2023-02-19T04:49:12;99009.91;;;9.46;100.00
6413;BME280;3239;48.714;9.472;2023-02-19T04:51:38;99016.13;;;9.52;100.00
6413;BME280;3239;48.714;9.472;2023-02-19T04:54:04;99009.66;;;9.55;100.00
6413;BME280;3239;48.714;9.472;2023-02-19T04:56:30;99013.13;;;9.55;100.00
6413;BME280;3239;48.714;9.472;2023-02-19T04:58:56;99007.91;;;9.52;100.00
6413;BME280;3239;48.714;9.472;2023-02-19T05:01:23;99006.19;;;9.54;100.00
6413;BME280;3239;48.714;9.472;2023-02-19T05:03:49;99008.91;;;9.49;100.00
6413;BME280;3239;48.714;9.472;2023-02-19T05:06:15;99012.63;;;9.51;100.00
6413;BME280;3239;48.714;9.472;2023-02-19T05:08:41;99018.59;;;9.50;100.00
6413;BME280;3239;48.714;9.472;2023-02-19T05:11:10;99015.38;;;9.46;100.00
6413;BME280;3239;48.714;9.472;2023-02-19T05:13:36;99015.88;;;9.44;100.00
6413;BME280;3239;48.714;9.472;2023-02-19T05:16:12;99017.84;;;9.44;100.00
6413;BME280;3239;48.714;9.472;2023-02-19T05:18:39;99011.41;;;9.47;100.00
6413;BME280;3239;48.714;9.472;2023-02-19T05:21:05;99003.44;;;9.49;100.00
6413;BME280;3239;48.714;9.472;2023-02-19T05:23:31;99008.16;;;9.43;100.00
6413;BME280;3239;48.714;9.472;2023-02-19T05:25:57;99011.38;;;9.41;100.00
6413;BME280;3239;48.714;9.472;2023-02-19T05:28:23;99016.88;;;9.47;100.00
6413;BME280;3239;48.714;9.472;2023-02-19T05:30:54;99006.66;;;9.42;100.00
6413;BME280;3239;48.714;9.472;2023-02-19T05:33:23;99003.44;;;9.43;100.00
6413;BME280;3239;48.714;9.472;2023-02-19T05:35:53;98989.00;;;9.43;100.00
6413;BME280;3239;48.714;9.472;2023-02-19T05:38:20;98986.03;;;9.46;100.00
6413;BME280;3239;48.714;9.472;2023-02-19T05:40:46;98980.31;;;9.44;100.00
6413;BME280;3239;48.714;9.472;2023-02-19T05:43:13;98986.78;;;9.47;100.00
6413;BME280;3239;48.714;9.472;2023-02-19T05:45:40;98977.81;;;9.46;100.00
6413;BME280;3239;48.714;9.472;2023-02-19T05:48:07;98969.13;;;9.42;100.00
6413;BME280;3239;48.714;9.472;2023-02-19T05:50:35;98980.56;;;9.46;100.00
6413;BME280;3239;48.714;9.472;2023-02-19T05:53:02;98972.34;;;9.46;100.00
6413;BME280;3239;48.714;9.472;2023-02-19T05:55:29;98991.50;;;9.46;100.00
6413;BME280;3239;48.714;9.472;2023-02-19T05:57:58;98991.25;;;9.50;100.00
6413;BME280;3239;48.714;9.472;2023-02-19T06:00:23;98980.31;;;9.44;100.00
6413;BME280;3239;48.714;9.472;2023-02-19T06:02:52;98986.28;;;9.43;100.00
6413;BME280;3239;48.714;9.472;2023-02-19T06:05:18;98978.06;;;9.37;100.00
6413;BME280;3239;48.714;9.472;2023-02-19T06:07:44;98994.97;;;9.41;100.00
6413;BME280;3239;48.714;9.472;2023-02-19T06:10:11;98993.25;;;9.38;100.00
6413;BME280;3239;48.714;9.472;2023-02-19T06:12:37;98993.72;;;9.37;100.00
6413;BME280;3239;48.714;9.472;2023-02-19T06:15:04;99004.91;;;9.33;100.00
6413;BME280;3239;48.714;9.472;2023-02-19T06:17:32;99010.88;;;9.32;100.00
6413;BME280;3239;48.714;9.472;2023-02-19T06:19:58;99014.84;;;9.36;100.00
6413;BME280;3239;48.714;9.472;2023-02-19T06:22:24;99018.84;;;9.41;100.00
6413;BME280;3239;48.714;9.472;2023-02-19T06:24:50;99019.84;;;9.32;100.00
6413;BME280;3239;48.714;9.472;2023-02-19T06:27:15;99016.59;;;9.28;100.00
6413;BME280;3239;48.714;9.472;2023-02-19T06:29:41;99027.28;;;9.26;100.00
6413;BME280;3239;48.714;9.472;2023-02-19T06:32:07;99037.72;;;9.22;100.00
6413;BME280;3239;48.714;9.472;2023-02-19T06:34:33;99050.34;;;9.14;100.00
6413;BME280;3239;48.714;9.472;2023-02-19T06:37:00;99062.25;;;9.06;100.00
6413;BME280;3239;48.714;9.472;2023-02-19T06:39:26;99068.19;;;9.04;100.00
6413;BME280;3239;48.714;9.472;2023-02-19T06:41:56;99085.09;;;8.97;100.00
6413;BME280;3239;48.714;9.472;2023-02-19T06:44:24;99094.25;;;8.89;100.00
6413;BME280;3239;48.714;9.472;2023-02-19T06:46:53;99103.16;;;8.84;100.00
6413;BME280;3239;48.714;9.472;2023-02-19T06:49:19;99104.59;;;8.74;100.00
6413;BME280;3239;48.714;9.472;2023-02-19T06:51:44;99098.38;;;8.73;100.00
6413;BME280;3239;48.714;9.472;2023-02-19T06:54:10;99105.59;;;8.76;100.00
6413;BME280;3239;48.714;9.472;2023-02-19T06:56:38;99109.28;;;8.68;100.00
6413;BME280;3239;48.714;9.472;2023-02-19T06:59:09;99116.78;;;8.78;100.00
6413;BME280;3239;48.714;9.472;2023-02-19T07:01:36;99120.03;;;8.77;100.00
6413;BME280;3239;48.714;9.472;2023-02-19T07:04:03;99118.31;;;8.79;100.00
6413;BME280;3239;48.714;9.472;2023-02-19T07:06:29;99117.28;;;8.77;100.00
6413;BME280;3239;48.714;9.472;2023-02-19T07:08:57;99130.00;;;8.85;100.00
6413;BME280;3239;48.714;9.472;2023-02-19T07:11:24;99131.75;;;8.88;100.00
6413;BME280;3239;48.714;9.472;2023-02-19T07:13:57;99131.00;;;8.88;100.00
6413;BME280;3239;48.714;9.472;2023-02-19T07:16:24;99128.78;;;8.92;100.00
6413;BME280;3239;48.714;9.472;2023-02-19T07:18:50;99127.56;;;8.93;100.00
6413;BME280;3239;48.714;9.472;2023-02-19T07:21:17;99105.47;;;9.02;100.00
6413;BME280;3239;48.714;9.472;2023-02-19T07:23:43;99106.25;;;9.08;100.00
6413;BME280;3239;48.714;9.472;2023-02-19T07:26:14;99092.31;;;9.00;100.00
6413;BME280;3239;48.714;9.472;2023-02-19T07:28:41;99074.94;;;9.09;100.00
6413;BME280;3239;48.714;9.472;2023-02-19T07:31:07;99063.97;;;9.03;100.00
6413;BME280;3239;48.714;9.472;2023-02-19T07:33:33;99064.50;;;9.07;100.00
6413;BME280;3239;48.714;9.472;2023-02-19T07:35:59;99054.56;;;9.10;100.00
6413;BME280;3239;48.714;9.472;2023-02-19T07:38:25;99054.81;;;9.12;100.00
6413;BME280;3239;48.714;9.472;2023-02-19T07:43:22;99027.22;;;9.10;100.00
6413;BME280;3239;48.714;9.472;2023-02-19T07:45:48;99015.81;;;9.17;100.00
6413;BME280;3239;48.714;9.472;2023-02-19T07:48:14;99009.34;;;9.14;100.00
6413;BME280;3239;48.714;9.472;2023-02-19T07:50:40;99004.41;;;9.24;100.00
6413;BME280;3239;48.714;9.472;2023-02-19T07:53:06;99012.09;;;9.25;100.00
6413;BME280;3239;48.714;9.472;2023-02-19T07:55:32;99000.94;;;9.29;100.00
6413;BME280;3239;48.714;9.472;2023-02-19T07:57:59;98994.97;;;9.36;100.00
6413;BME280;3239;48.714;9.472;2023-02-19T08:00:26;98999.72;;;9.41;100.00
6413;BME280;3239;48.714;9.472;2023-02-19T08:02:52;98985.03;;;9.38;100.00
6413;BME280;3239;48.714;9.472;2023-02-19T08:05:29;98987.75;;;9.33;100.00
6413;BME280;3239;48.714;9.472;2023-02-19T08:07:56;98978.31;;;9.39;100.00
6413;BME280;3239;48.714;9.472;2023-02-19T08:10:22;98968.59;;;9.44;100.00
6413;BME280;3239;48.714;9.472;2023-02-19T08:13:14;98973.34;;;9.60;100.00
6413;BME280;3239;48.714;9.472;2023-02-19T08:16:12;98973.84;;;9.53;100.00
6413;BME280;3239;48.714;9.472;2023-02-19T08:18:40;98972.59;;;9.65;100.00
6413;BME280;3239;48.714;9.472;2023-02-19T08:21:06;98956.44;;;9.67;100.00
6413;BME280;3239;48.714;9.472;2023-02-19T08:23:32;98957.44;;;9.69;100.00
6413;BME280;3239;48.714;9.472;2023-02-19T08:26:00;98954.94;;;9.77;100.00
6413;BME280;3239;48.714;9.472;2023-02-19T08:28:27;98961.16;;;9.77;100.00
6413;BME280;3239;48.714;9.472;2023-02-19T08:30:59;98953.19;;;9.79;100.00
6413;BME280;3239;48.714;9.472;2023-02-19T08:33:25;98962.88;;;9.86;100.00
6413;BME280;3239;48.714;9.472;2023-02-19T08:35:51;98963.84;;;9.99;100.00
6413;BME280;3239;48.714;9.472;2023-02-19T08:38:17;98964.84;;;10.13;100.00
6413;BME280;3239;48.714;9.472;2023-02-19T08:40:43;98966.84;;;10.12;100.00
6413;BME280;3239;48.714;9.472;2023-02-19T08:43:12;98963.13;;;10.04;100.00
6413;BME280;3239;48.714;9.472;2023-02-19T08:45:42;98961.63;;;10.14;100.00
6413;BME280;3239;48.714;9.472;2023-02-19T08:48:09;98969.56;;;10.18;100.00
6413;BME280;3239;48.714;9.472;2023-02-19T08:50:36;98972.09;;;10.05;100.00
6413;BME280;3239;48.714;9.472;2023-02-19T08:53:03;98982.53;;;9.90;100.00
6413;BME280;3239;48.714;9.472;2023-02-19T08:55:29;98990.00;;;9.78;100.00
6413;BME280;3239;48.714;9.472;2023-02-19T08:57:55;98998.22;;;9.84;100.00
6413;BME280;3239;48.714;9.472;2023-02-19T09:00:21;99007.91;;;9.96;100.00
6413;BME280;3239;48.714;9.472;2023-02-19T09:02:48;99014.41;;;10.04;100.00
6413;BME280;3239;48.714;9.472;2023-02-19T09:05:14;99022.09;;;10.05;100.00
6413;BME280;3239;48.714;9.472;2023-02-19T09:07:40;99011.38;;;10.13;100.00
6413;BME280;3239;48.714;9.472;2023-02-19T09:10:07;99011.66;;;10.09;100.00
6413;BME280;3239;48.714;9.472;2023-02-19T09:12:34;99017.09;;;10.20;100.00
6413;BME280;3239;48.714;9.472;2023-02-19T09:15:00;99007.91;;;10.07;100.00
6413;BME280;3239;48.714;9.472;2023-02-19T09:17:26;99018.38;;;10.08;100.00
6413;BME280;3239;48.714;9.472;2023-02-19T09:19:52;99021.84;;;10.03;100.00
6413;BME280;3239;48.714;9.472;2023-02-19T09:22:17;99019.13;;;9.98;100.00
6413;BME280;3239;48.714;9.472;2023-02-19T09:24:43;99027.81;;;9.91;100.00
6413;BME280;3239;48.714;9.472;2023-02-19T09:27:18;99036.53;;;9.95;100.00
6413;BME280;3239;48.714;9.472;2023-02-19T09:29:45;99044.00;;;9.94;100.00
6413;BME280;3239;48.714;9.472;2023-02-19T09:32:11;99041.75;;;9.87;100.00
6413;BME280;3239;48.714;9.472;2023-02-19T09:34:37;99058.69;;;9.91;100.00
6413;BME280;3239;48.714;9.472;2023-02-19T09:37:07;99052.44;;;9.91;100.00
6413;BME280;3239;48.714;9.472;2023-02-19T09:39:34;99058.94;;;9.99;100.00
6413;BME280;3239;48.714;9.472;2023-02-19T09:42:24;99058.66;;;9.97;100.00
6413;BME280;3239;48.714;9.472;2023-02-19T09:44:54;99054.19;;;9.99;100.00
6413;BME280;3239;48.714;9.472;2023-02-19T09:47:27;99049.22;;;9.92;100.00
6413;BME280;3239;48.714;9.472;2023-02-19T09:49:59;99048.22;;;10.01;100.00
6413;BME280;3239;48.714;9.472;2023-02-19T09:52:42;99047.75;;;10.08;100.00
6413;BME280;3239;48.714;9.472;2023-02-19T09:55:34;99052.22;;;10.11;100.00
6413;BME280;3239;48.714;9.472;2023-02-19T09:58:07;99062.69;;;10.23;100.00
6413;BME280;3239;48.714;9.472;2023-02-19T10:00:42;99039.25;;;10.28;100.00
6413;BME280;3239;48.714;9.472;2023-02-19T10:03:32;99049.94;;;10.37;100.00
6413;BME280;3239;48.714;9.472;2023-02-19T10:06:05;99038.50;;;10.38;100.00
6413;BME280;3239;48.714;9.472;2023-02-19T10:08:34;99021.00;;;10.52;100.00
6413;BME280;3239;48.714;9.472;2023-02-19T10:11:03;99009.00;;;10.72;100.00
6413;BME280;3239;48.714;9.472;2023-02-19T10:13:34;98999.47;;;10.84;100.00
6413;BME280;3239;48.714;9.472;2023-02-19T10:16:04;98993.72;;;10.93;100.00
6413;BME280;3239;48.714;9.472;2023-02-19T10:18:38;98982.00;;;10.87;100.00
6413;BME280;3239;48.714;9.472;2023-02-19T10:21:14;98981.50;;;10.94;100.00
6413;BME280;3239;48.714;9.472;2023-02-19T10:23:40;98963.22;;;11.02;100.00
6413;BME280;3239;48.714;9.472;2023-02-19T10:26:07;98971.00;;;10.98;100.00
6413;BME280;3239;48.714;9.472;2023-02-19T10:28:34;98965.59;;;11.62;100.00
6413;BME280;3239;48.714;9.472;2023-02-19T10:31:14;98963.19;;;11.48;100.00
6413;BME280;3239;48.714;9.472;2023-02-19T10:33:55;98958.91;;;11.82;100.00
6413;BME280;3239;48.714;9.472;2023-02-19T10:36:39;98964.38;;;12.35;100.00
6413;BME280;3239;48.714;9.472;2023-02-19T10:41:49;98949.56;;;12.81;100.00
6413;BME280;3239;48.714;9.472;2023-02-19T10:44:23;98945.13;;;12.35;100.00
6413;BME280;3239;48.714;9.472;2023-02-19T10:46:52;98959.34;;;12.39;100.00
6413;BME280;3239;48.714;9.472;2023-02-19T10:49:34;98960.00;;;12.45;100.00
6413;BME280;3239;48.714;9.472;2023-02-19T10:52:34;98960.94;;;12.29;100.00
6413;BME280;3239;48.714;9.472;2023-02-19T10:57:47;98971.31;;;11.64;100.00
6413;BME280;3239;48.714;9.472;2023-02-19T11:02:42;98976.56;;;12.16;100.00
6413;BME280;3239;48.714;9.472;2023-02-19T11:07:35;98971.31;;;12.18;100.00
6413;BME280;3239;48.714;9.472;2023-02-19T11:10:04;98962.19;;;12.04;100.00
6413;BME280;3239;48.714;9.472;2023-02-19T11:12:33;98969.47;;;12.02;100.00
6413;BME280;3239;48.714;9.472;2023-02-19T11:15:20;98970.41;;;12.10;100.00
6413;BME280;3239;48.714;9.472;2023-02-19T11:20:54;98968.31;;;11.92;100.00
6413;BME280;3239;48.714;9.472;2023-02-19T11:23:31;98962.41;;;11.82;100.00
6413;BME280;3239;48.714;9.472;2023-02-19T11:26:06;98969.81;;;11.93;100.00
6413;BME280;3239;48.714;9.472;2023-02-19T11:28:40;98964.84;;;12.15;100.00
6413;BME280;3239;48.714;9.472;2023-02-19T11:31:27;98963.78;;;11.94;100.00
6413;BME280;3239;48.714;9.472;2023-02-19T11:34:22;98967.78;;;11.69;100.00
6413;BME280;3239;48.714;9.472;2023-02-19T11:37:16;98958.03;;;11.68;100.00
6413;BME280;3239;48.714;9.472;2023-02-19T11:39:45;98962.78;;;11.97;100.00
6413;BME280;3239;48.714;9.472;2023-02-19T11:42:41;98954.00;;;12.23;100.00
6413;BME280;3239;48.714;9.472;2023-02-19T11:45:21;98949.09;;;12.16;100.00
6413;BME280;3239;48.714;9.472;2023-02-19T11:53:46;98961.28;;;11.96;100.00
6413;BME280;3239;48.714;9.472;2023-02-19T11:56:35;98972.69;;;12.06;100.00
6413;BME280;3239;48.714;9.472;2023-02-19T12:08:08;98987.84;;;11.53;100.00
6413;BME280;3239;48.714;9.472;2023-02-19T12:11:13;98979.50;;;11.70;100.00
6413;BME280;3239;48.714;9.472;2023-02-19T12:19:52;98969.47;;;12.02;100.00
6413;BME280;3239;48.714;9.472;2023-02-19T12:22:32;98969.97;;;12.00;100.00
6413;BME280;3239;48.714;9.472;2023-02-19T12:25:29;98962.56;;;12.62;100.00
6413;BME280;3239;48.714;9.472;2023-02-19T12:31:14;98972.81;;;12.61;100.00
6413;BME280;3239;48.714;9.472;2023-02-19T12:37:11;98965.88;;;12.55;100.00
6413;BME280;3239;48.714;9.472;2023-02-19T12:45:41;98961.00;;;12.24;100.00
6413;BME280;3239;48.714;9.472;2023-02-19T12:54:04;98976.91;;;11.83;100.00
6413;BME280;3239;48.714;9.472;2023-02-19T12:56:40;98946.09;;;11.66;100.00
6413;BME280;3239;48.714;9.472;2023-02-19T12:59:30;98958.09;;;11.57;100.00
6413;BME280;3239;48.714;9.472;2023-02-19T13:12:42;98947.78;;;11.98;100.00
6413;BME280;3239;48.714;9.472;2023-02-19T13:15:38;98953.75;;;12.02;100.00
6413;BME280;3239;48.714;9.472;2023-02-19T13:18:06;98956.19;;;12.06;100.00
6413;BME280;3239;48.714;9.472;2023-02-19T13:20:41;98958.66;;;11.85;100.00
6413;BME280;3239;48.714;9.472;2023-02-19T13:23:34;98946.75;;;11.77;100.00
6413;BME280;3239;48.714;9.472;2023-02-19T13:29:58;98957.25;;;11.73;100.00
6413;BME280;3239;48.714;9.472;2023-02-19T13:38:46;98966.81;;;11.26;100.00
6413;BME280;3239;48.714;9.472;2023-02-19T13:41:35;98965.72;;;11.40;100.00
6413;BME280;3239;48.714;9.472;2023-02-19T13:44:06;98966.09;;;11.26;100.00
6413;BME280;3239;48.714;9.472;2023-02-19T13:46:39;98972.09;;;11.19;100.00
6413;BME280;3239;48.714;9.472;2023-02-19T13:51:57;98957.38;;;11.22;100.00
6413;BME280;3239;48.714;9.472;2023-02-19T13:54:27;98967.16;;;11.17;100.00
6413;BME280;3239;48.714;9.472;2023-02-19T13:59:47;98963.41;;;11.15;100.00
6413;BME280;3239;48.714;9.472;2023-02-19T14:04:53;98960.09;;;11.27;100.00
6413;BME280;3239;48.714;9.472;2023-02-19T14:07:51;98964.06;;;11.26;100.00
6413;BME280;3239;48.714;9.472;2023-02-19T14:10:54;98962.66;;;11.14;100.00
6413;BME280;3239;48.714;9.472;2023-02-19T14:19:13;98959.28;;;10.97;100.00
6413;BME280;3239;48.714;9.472;2023-02-19T14:21:40;98963.50;;;10.98;100.00
6413;BME280;3239;48.714;9.472;2023-02-19T14:24:13;98960.53;;;10.96;100.00
6413;BME280;3239;48.714;9.472;2023-02-19T14:26:40;98961.34;;;10.86;100.00
6413;BME280;3239;48.714;9.472;2023-02-19T14:29:07;98961.59;;;10.88;100.00
6413;BME280;3239;48.714;9.472;2023-02-19T14:31:38;98970.03;;;10.95;100.00
6413;BME280;3239;48.714;9.472;2023-02-19T14:34:17;98965.53;;;10.92;100.00
6413;BME280;3239;48.714;9.472;2023-02-19T14:36:57;98970.81;;;10.90;100.00
6413;BME280;3239;48.714;9.472;2023-02-19T14:39:34;98976.75;;;10.94;100.00
6413;BME280;3239;48.714;9.472;2023-02-19T14:42:15;98988.66;;;11.02;100.00
6413;BME280;3239;48.714;9.472;2023-02-19T14:44:54;98983.25;;;10.91;100.00
6413;BME280;3239;48.714;9.472;2023-02-19T14:47:24;98981.50;;;10.88;100.00
6413;BME280;3239;48.714;9.472;2023-02-19T14:50:18;98986.78;;;10.81;100.00
6413;BME280;3239;48.714;9.472;2023-02-19T14:52:53;98986.53;;;10.79;100.00
6413;BME280;3239;48.714;9.472;2023-02-19T14:57:58;98990.28;;;10.81;100.00
6413;BME280;3239;48.714;9.472;2023-02-19T15:00:28;99001.00;;;10.79;100.00
6413;BME280;3239;48.714;9.472;2023-02-19T15:02:56;99001.97;;;10.82;100.00
6413;BME280;3239;48.714;9.472;2023-02-19T15:05:25;99002.44;;;10.91;100.00
6413;BME280;3239;48.714;9.472;2023-02-19T15:08:02;98989.56;;;10.75;100.00
6413;BME280;3239;48.714;9.472;2023-02-19T15:10:30;98994.50;;;10.82;100.00
6413;BME280;3239;48.714;9.472;2023-02-19T15:13:02;99003.53;;;10.72;100.00
6413;BME280;3239;48.714;9.472;2023-02-19T15:15:34;99007.22;;;10.80;100.00
6413;BME280;3239;48.714;9.472;2023-02-19T15:18:02;99025.19;;;10.75;100.00
6413;BME280;3239;48.714;9.472;2023-02-19T15:20:34;99020.19;;;10.79;100.00
6413;BME280;3239;48.714;9.472;2023-02-19T15:23:05;99030.91;;;10.83;100.00
6413;BME280;3239;48.714;9.472;2023-02-19T15:25:38;99039.66;;;10.65;100.00
6413;BME280;3239;48.714;9.472;2023-02-19T15:33:26;99039.94;;;10.61;100.00
6413;BME280;3239;48.714;9.472;2023-02-19T15:35:58;99036.19;;;10.59;100.00